Time;durP1;ratioP1;P1;durP2;ratioP2;P2;SDS_P1;SDS_P2;PMS_P1;PMS_P2;Temp;Humidity;BMP_temperature;BMP_pressure;BME280_temperature;BME280_humidity;BME280_pressure;Samples;Min_cycle;Max_cycle;Signal;HPM_P1;HPM_P2
2020/12/11 00:02:06;;;;;;;31.00;17.10;;;2.30;82.70;;;;;;5051166;28;20108;-86
2020/12/11 00:04:32;;;;;;;31.23;16.73;;;2.20;81.80;;;;;;5051214;28;20500;-86
2020/12/11 00:06:58;;;;;;;33.57;17.30;;;2.20;81.70;;;;;;5050677;28;20032;-86
2020/12/11 00:09:25;;;;;;;29.70;17.53;;;2.20;82.60;;;;;;5050808;28;20043;-86
2020/12/11 00:11:54;;;;;;;33.37;17.57;;;2.20;82.50;;;;;;5050912;28;20029;-87
2020/12/11 00:14:20;;;;;;;30.25;17.20;;;2.20;82.80;;;;;;5051315;28;20090;-86
2020/12/11 00:16:46;;;;;;;32.37;17.57;;;2.20;81.40;;;;;;5050903;28;20357;-86
2020/12/11 00:19:11;;;;;;;31.67;17.13;;;2.20;81.90;;;;;;5050556;28;20047;-86
2020/12/11 00:21:45;;;;;;;31.47;16.63;;;2.30;82.00;;;;;;5050432;28;20029;-86
2020/12/11 00:24:11;;;;;;;32.07;17.47;;;2.20;82.40;;;;;;5051438;28;20036;-86
2020/12/11 00:26:38;;;;;;;32.20;17.23;;;2.20;82.60;;;;;;5052423;28;20025;-87
2020/12/11 00:29:04;;;;;;;32.60;17.47;;;2.30;82.00;;;;;;5050766;28;20043;-86
2020/12/11 00:31:29;;;;;;;31.60;17.00;;;2.30;82.00;;;;;;5050666;28;20139;-87
2020/12/11 00:33:55;;;;;;;30.63;16.63;;;2.20;82.10;;;;;;5051178;28;20112;-86
2020/12/11 00:36:22;;;;;;;30.77;16.80;;;2.20;82.10;;;;;;5050413;28;20052;-86
2020/12/11 00:38:48;;;;;;;32.50;17.07;;;2.30;81.70;;;;;;5050770;28;20509;-87
2020/12/11 00:41:14;;;;;;;29.50;16.03;;;2.30;82.40;;;;;;5050339;28;20221;-86
2020/12/11 00:43:40;;;;;;;26.27;15.17;;;2.20;81.50;;;;;;5052213;28;20048;-86
2020/12/11 00:46:06;;;;;;;30.40;16.13;;;2.20;81.60;;;;;;5051849;28;20118;-87
2020/12/11 00:48:31;;;;;;;27.10;15.17;;;2.30;81.80;;;;;;5051961;28;20481;-87
2020/12/11 00:50:57;;;;;;;27.13;15.17;;;2.30;81.80;;;;;;5049708;28;20022;-86
2020/12/11 00:53:24;;;;;;;28.33;15.47;;;2.20;81.20;;;;;;5049863;28;20025;-87
2020/12/11 00:55:50;;;;;;;26.10;14.70;;;2.30;81.70;;;;;;5050628;28;20449;-86
2020/12/11 00:58:15;;;;;;;26.50;15.17;;;2.30;82.40;;;;;;5050257;28;20116;-87
2020/12/11 01:00:41;;;;;;;25.87;15.27;;;2.30;82.30;;;;;;5049920;28;20033;-87
2020/12/11 01:03:07;;;;;;;22.37;13.97;;;2.30;81.80;;;;;;5050275;28;20036;-86
2020/12/11 01:05:35;;;;;;;26.30;14.20;;;2.30;82.10;;;;;;5051714;28;20044;-87
2020/12/11 01:08:01;;;;;;;24.83;14.30;;;2.30;82.30;;;;;;5049916;28;20444;-86
2020/12/11 01:10:28;;;;;;;23.83;13.60;;;2.30;82.00;;;;;;5049724;28;20725;-86
2020/12/11 01:12:54;;;;;;;24.67;13.87;;;2.30;81.90;;;;;;5051786;28;20469;-86
2020/12/11 01:15:19;;;;;;;25.13;14.33;;;2.40;83.10;;;;;;5049399;28;20033;-86
2020/12/11 01:17:45;;;;;;;24.17;14.13;;;2.40;82.00;;;;;;5051398;28;20043;-87
2020/12/11 01:20:10;;;;;;;22.70;13.33;;;2.40;82.80;;;;;;5049673;28;20041;-86
2020/12/11 01:22:36;;;;;;;22.87;13.43;;;2.40;82.40;;;;;;5049639;28;20045;-87
2020/12/11 01:25:02;;;;;;;25.53;13.83;;;2.40;81.80;;;;;;5050107;28;20025;-87
2020/12/11 01:27:28;;;;;;;22.53;12.93;;;2.40;82.10;;;;;;5049932;28;20029;-86
2020/12/11 01:29:53;;;;;;;21.93;13.07;;;2.30;81.60;;;;;;5049642;28;20036;-87
2020/12/11 01:32:19;;;;;;;22.87;12.87;;;2.40;81.60;;;;;;5050038;28;20502;-86
2020/12/11 01:34:44;;;;;;;21.93;12.50;;;2.40;82.10;;;;;;5050164;28;20116;-86
2020/12/11 01:37:10;;;;;;;22.00;12.47;;;2.40;82.10;;;;;;5049351;28;20128;-86
2020/12/11 01:39:36;;;;;;;20.30;12.17;;;2.40;81.70;;;;;;5049428;28;20410;-86
2020/12/11 01:42:07;;;;;;;21.77;12.40;;;2.40;81.80;;;;;;5049603;28;20025;-85
2020/12/11 01:44:33;;;;;;;22.10;12.77;;;2.40;81.80;;;;;;5051014;28;20072;-86
2020/12/11 01:46:59;;;;;;;20.80;12.37;;;2.40;82.00;;;;;;5049361;28;20099;-86
2020/12/11 01:49:25;;;;;;;21.87;12.90;;;2.40;82.20;;;;;;5049477;28;20029;-86
2020/12/11 01:51:51;;;;;;;20.57;12.07;;;2.40;82.70;;;;;;5049064;28;20115;-86
2020/12/11 01:54:17;;;;;;;20.43;11.93;;;2.40;83.10;;;;;;5049716;28;20112;-86
2020/12/11 01:56:51;;;;;;;20.60;12.00;;;2.40;81.80;;;;;;5049225;28;20021;-86
2020/12/11 01:59:26;;;;;;;21.13;12.83;;;2.50;81.90;;;;;;5048798;28;20500;-86
2020/12/11 02:01:56;;;;;;;21.20;12.63;;;2.50;81.60;;;;;;5050383;28;20494;-86
2020/12/11 02:04:22;;;;;;;19.63;11.93;;;2.50;81.70;;;;;;5050865;28;20025;-86
2020/12/11 02:06:50;;;;;;;21.37;12.33;;;2.50;82.00;;;;;;5050333;28;20028;-86
2020/12/11 02:09:16;;;;;;;20.93;12.73;;;2.50;82.90;;;;;;5048790;28;20054;-86
2020/12/11 02:11:42;;;;;;;20.57;11.97;;;2.50;82.20;;;;;;5048862;28;20029;-86
2020/12/11 02:14:09;;;;;;;19.73;12.27;;;2.50;81.80;;;;;;5050212;28;20025;-86
2020/12/11 02:16:35;;;;;;;19.53;11.67;;;2.50;82.50;;;;;;5050317;28;20029;-87
2020/12/11 02:19:00;;;;;;;19.70;11.83;;;2.50;81.90;;;;;;5048612;28;20025;-86
2020/12/11 02:21:26;;;;;;;20.47;12.37;;;2.40;82.00;;;;;;5049580;28;20021;-86
2020/12/11 02:23:52;;;;;;;21.73;12.57;;;2.40;82.70;;;;;;5049078;28;20099;-86
2020/12/11 02:26:17;;;;;;;19.50;11.33;;;2.50;82.40;;;;;;5048843;28;20043;-86
2020/12/11 02:28:43;;;;;;;21.17;12.57;;;2.50;81.70;;;;;;5050394;28;20112;-86
2020/12/11 02:31:09;;;;;;;19.50;12.27;;;2.40;82.10;;;;;;5048147;28;20108;-86
2020/12/11 02:33:34;;;;;;;21.07;12.07;;;2.40;82.70;;;;;;5048858;28;20057;-86
2020/12/11 02:36:00;;;;;;;19.67;11.90;;;2.40;82.40;;;;;;5048786;28;20040;-86
2020/12/11 02:38:25;;;;;;;20.77;12.17;;;2.40;82.30;;;;;;5049726;28;20095;-86
2020/12/11 02:40:55;;;;;;;21.33;12.20;;;2.40;81.80;;;;;;5048328;28;20025;-86
2020/12/11 02:43:20;;;;;;;;;;;2.40;82.40;;;;;;5049185;28;20116;-86
2020/12/11 02:45:47;;;;;;;22.33;12.80;;;2.50;83.00;;;;;;5048869;28;20323;-87
2020/12/11 02:48:13;;;;;;;23.40;13.20;;;2.40;82.50;;;;;;5050072;28;20025;-86
2020/12/11 02:50:39;;;;;;;25.37;13.60;;;2.40;82.20;;;;;;5049612;28;20350;-86
2020/12/11 02:53:06;;;;;;;22.43;12.83;;;2.40;83.00;;;;;;5048185;28;20528;-86
2020/12/11 02:55:33;;;;;;;23.30;12.97;;;2.40;82.50;;;;;;5050072;28;20090;-86
2020/12/11 02:57:59;;;;;;;22.10;13.13;;;2.40;82.00;;;;;;5048475;28;20028;-86
2020/12/11 03:00:25;;;;;;;21.70;12.80;;;2.40;82.10;;;;;;5049689;28;20029;-86
2020/12/11 03:02:50;;;;;;;22.77;13.60;;;2.40;82.10;;;;;;5048477;28;20029;-86
2020/12/11 03:05:16;;;;;;;23.50;13.37;;;2.40;82.00;;;;;;5050135;28;20100;-86
2020/12/11 03:07:42;;;;;;;20.77;12.57;;;2.40;82.20;;;;;;5048464;28;20144;-86
2020/12/11 03:10:07;;;;;;;21.63;12.60;;;2.50;82.50;;;;;;5051334;28;20029;-86
2020/12/11 03:12:33;;;;;;;21.60;12.80;;;2.40;81.70;;;;;;5051253;28;20500;-86
2020/12/11 03:15:01;;;;;;;20.87;11.77;;;2.40;81.80;;;;;;5090312;22;20460;-81
2020/12/11 03:17:27;;;;;;;19.67;12.60;;;2.40;82.50;;;;;;5052881;28;20034;-82
2020/12/11 03:19:53;;;;;;;19.23;11.60;;;2.40;82.50;;;;;;5051195;28;20029;-82
2020/12/11 03:22:18;;;;;;;21.00;12.20;;;2.40;81.30;;;;;;5050682;28;20112;-80
2020/12/11 03:24:44;;;;;;;21.20;12.00;;;2.40;81.40;;;;;;5050527;28;20052;-82
2020/12/11 03:27:10;;;;;;;19.13;10.83;;;2.40;82.30;;;;;;5052106;28;20691;-82
2020/12/11 03:29:36;;;;;;;21.00;11.77;;;2.40;81.60;;;;;;5051237;28;20058;-82
2020/12/11 03:32:02;;;;;;;19.97;10.80;;;2.40;81.90;;;;;;5052246;28;20107;-82
2020/12/11 03:34:28;;;;;;;19.23;11.33;;;2.40;81.50;;;;;;5052807;28;20557;-82
2020/12/11 03:36:54;;;;;;;18.17;10.83;;;2.30;82.30;;;;;;5051894;28;20021;-82
2020/12/11 03:39:19;;;;;;;18.03;10.87;;;2.40;81.50;;;;;;5053676;28;20033;-81
2020/12/11 03:41:50;;;;;;;19.50;11.53;;;2.40;81.70;;;;;;5054881;28;20025;-82
2020/12/11 03:44:15;;;;;;;19.03;10.97;;;2.30;81.20;;;;;;5057007;28;20025;-82
2020/12/11 03:46:41;;;;;;;19.10;10.83;;;2.40;81.60;;;;;;5056544;28;20492;-82
2020/12/11 03:49:06;;;;;;;18.77;11.30;;;2.40;80.90;;;;;;5056738;28;20601;-81
2020/12/11 03:51:32;;;;;;;18.43;10.93;;;2.40;81.60;;;;;;5055098;28;20041;-82
2020/12/11 03:53:58;;;;;;;18.33;10.67;;;2.40;81.10;;;;;;5056012;28;20048;-81
2020/12/11 03:56:23;;;;;;;16.83;10.00;;;2.40;81.10;;;;;;5055493;28;20104;-82
2020/12/11 03:58:49;;;;;;;18.23;10.57;;;2.50;81.60;;;;;;5056302;28;20127;-81
2020/12/11 04:01:15;;;;;;;18.77;10.57;;;2.50;80.80;;;;;;5056974;28;20112;-82
2020/12/11 04:03:41;;;;;;;17.80;10.93;;;2.50;80.50;;;;;;5061295;28;20031;-83
2020/12/11 04:06:12;;;;;;;18.77;11.03;;;2.50;81.40;;;;;;5057631;28;20021;-81
2020/12/11 04:08:38;;;;;;;18.87;10.50;;;2.50;81.30;;;;;;5055013;28;20482;-81
2020/12/11 04:11:14;;;;;;;16.40;10.13;;;2.50;80.70;;;;;;5053722;28;20071;-82
2020/12/11 04:13:40;;;;;;;17.57;10.23;;;2.50;80.60;;;;;;5054668;28;20017;-81
2020/12/11 04:16:08;;;;;;;16.60;10.47;;;2.50;80.50;;;;;;5055509;28;20028;-82
2020/12/11 04:18:34;;;;;;;16.90;9.60;;;2.50;80.60;;;;;;5056479;28;20021;-82
2020/12/11 04:21:00;;;;;;;19.77;11.60;;;2.50;80.60;;;;;;5055959;28;20039;-85
2020/12/11 04:23:26;;;;;;;17.80;10.83;;;2.50;80.40;;;;;;5054879;28;20426;-86
2020/12/11 04:25:54;;;;;;;16.33;9.90;;;2.60;81.00;;;;;;5056160;28;20516;-80
2020/12/11 04:28:20;;;;;;;17.33;10.10;;;2.50;80.30;;;;;;5056082;28;20474;-82
2020/12/11 04:30:46;;;;;;;15.37;9.67;;;2.50;80.30;;;;;;5055439;28;20025;-83
2020/12/11 04:33:11;;;;;;;17.53;10.50;;;2.50;80.30;;;;;;5054079;28;20043;-82
2020/12/11 04:35:37;;;;;;;18.93;10.50;;;2.60;80.90;;;;;;5053937;28;20111;-82
2020/12/11 04:38:03;;;;;;;16.47;9.70;;;2.60;80.30;;;;;;5052859;28;20025;-83
2020/12/11 04:40:30;;;;;;;17.53;10.53;;;2.60;81.00;;;;;;5055197;28;20051;-85
2020/12/11 04:42:55;;;;;;;17.47;10.77;;;2.60;80.30;;;;;;5054883;28;20070;-82
2020/12/11 04:45:22;;;;;;;18.10;10.57;;;2.60;80.70;;;;;;5053454;28;20032;-81
2020/12/11 04:47:49;;;;;;;15.60;9.80;;;2.60;80.30;;;;;;5054698;28;20519;-81
2020/12/11 04:50:17;;;;;;;15.70;10.17;;;2.60;80.00;;;;;;5053300;28;20056;-82
2020/12/11 04:52:45;;;;;;;17.70;9.90;;;2.70;80.50;;;;;;5053749;28;20080;-82
2020/12/11 04:55:19;;;;;;;14.97;9.40;;;2.60;79.90;;;;;;5054938;28;20048;-81
2020/12/11 04:57:51;;;;;;;17.93;10.23;;;2.60;80.20;;;;;;5055156;28;20024;-82
2020/12/11 05:00:19;;;;;;;16.60;10.03;;;2.60;79.80;;;;;;5055041;28;20390;-82
2020/12/11 05:02:45;;;;;;;16.40;9.83;;;2.60;80.40;;;;;;5054717;28;20060;-82
2020/12/11 05:05:12;;;;;;;17.40;10.43;;;2.60;80.80;;;;;;5055048;28;20438;-82
2020/12/11 05:07:38;;;;;;;17.40;9.93;;;2.60;80.80;;;;;;5053154;28;20040;-82
2020/12/11 05:10:06;;;;;;;15.80;10.00;;;2.60;80.00;;;;;;5054501;28;20461;-82
2020/12/11 05:12:32;;;;;;;15.73;9.90;;;2.60;80.50;;;;;;5054900;28;20025;-82
2020/12/11 05:14:59;;;;;;;16.73;9.93;;;2.60;79.80;;;;;;5054466;28;20048;-83
2020/12/11 05:17:29;;;;;;;17.03;9.63;;;2.60;80.20;;;;;;5056661;28;20040;-82
2020/12/11 05:19:56;;;;;;;17.43;10.20;;;2.60;79.80;;;;;;5053608;28;20025;-80
2020/12/11 05:22:24;;;;;;;15.77;9.73;;;2.60;80.70;;;;;;5054136;28;20021;-82
2020/12/11 05:24:54;;;;;;;18.40;10.23;;;2.50;79.70;;;;;;5055603;28;20025;-84
2020/12/11 05:27:44;;;;;;;18.10;10.20;;;2.60;80.40;;;;;;5055238;28;20017;-85
2020/12/11 05:30:19;;;;;;;15.17;9.37;;;2.50;80.70;;;;;;5052334;28;20530;-82
2020/12/11 05:32:53;;;;;;;17.03;10.17;;;2.60;80.40;;;;;;5054457;28;20481;-83
2020/12/11 05:35:18;;;;;;;17.03;10.47;;;2.50;80.10;;;;;;5055617;28;20469;-82
2020/12/11 05:38:07;;;;;;;16.53;10.40;;;2.60;80.90;;;;;;5051905;28;20025;-81
2020/12/11 05:40:40;;;;;;;16.23;9.57;;;2.50;80.10;;;;;;5053673;28;20037;-84
2020/12/11 05:43:15;;;;;;;16.20;10.00;;;2.50;81.20;;;;;;5054145;28;20535;-81
2020/12/11 05:45:48;;;;;;;16.73;10.23;;;2.50;80.10;;;;;;5051440;28;20116;-84
2020/12/11 05:48:14;;;;;;;16.93;10.20;;;2.50;80.30;;;;;;5052231;28;20025;-82
2020/12/11 05:50:40;;;;;;;18.13;11.30;;;2.50;79.90;;;;;;5052910;28;20504;-81
2020/12/11 05:53:05;;;;;;;19.30;11.43;;;2.50;80.30;;;;;;5052700;28;20021;-84
2020/12/11 05:55:31;;;;;;;16.13;9.90;;;2.50;80.80;;;;;;5052921;28;20036;-80
2020/12/11 05:57:58;;;;;;;17.33;9.93;;;2.50;80.10;;;;;;5051208;28;20017;-81
2020/12/11 06:00:26;;;;;;;17.30;10.57;;;2.50;80.60;;;;;;5052864;28;20049;-81
2020/12/11 06:02:53;;;;;;;18.90;11.13;;;2.60;80.00;;;;;;5051926;28;20385;-85
2020/12/11 06:05:21;;;;;;;18.30;10.67;;;2.60;80.60;;;;;;5052870;28;20492;-83
2020/12/11 06:07:48;;;;;;;17.97;10.87;;;2.50;80.20;;;;;;5052011;28;20120;-84
2020/12/11 06:10:15;;;;;;;17.97;10.10;;;2.60;80.70;;;;;;5053710;28;20108;-85
2020/12/11 06:12:42;;;;;;;17.77;10.57;;;2.60;80.00;;;;;;5052216;28;20079;-84
2020/12/11 06:15:30;;;;;;;16.40;10.17;;;2.60;80.60;;;;;;5052103;28;20029;-84
2020/12/11 06:18:06;;;;;;;18.33;10.50;;;2.60;80.50;;;;;;5052394;28;20496;-85
2020/12/11 06:20:34;;;;;;;18.03;10.77;;;2.60;80.10;;;;;;5051778;28;20037;-85
2020/12/11 06:23:20;;;;;;;16.53;10.03;;;2.60;79.90;;;;;;5051144;28;20132;-84
2020/12/11 06:25:50;;;;;;;17.63;10.53;;;2.60;79.90;;;;;;5052171;28;20044;-85
2020/12/11 06:28:38;;;;;;;19.23;10.70;;;2.70;80.10;;;;;;5052850;28;20052;-85
2020/12/11 06:31:05;;;;;;;20.63;10.33;;;2.70;80.30;;;;;;5051815;28;20079;-85
2020/12/11 06:33:32;;;;;;;17.70;10.47;;;2.70;79.40;;;;;;5053714;28;20470;-84
2020/12/11 06:36:02;;;;;;;16.77;9.67;;;2.70;79.40;;;;;;5052640;28;20021;-85
2020/12/11 06:38:44;;;;;;;18.70;10.80;;;2.70;80.60;;;;;;5053686;28;20032;-84
2020/12/11 06:41:11;;;;;;;16.40;9.90;;;2.70;79.80;;;;;;5053626;28;20540;-85
2020/12/11 06:43:38;;;;;;;18.90;10.23;;;2.70;79.80;;;;;;5052208;28;20029;-83
2020/12/11 06:46:20;;;;;;;16.67;10.23;;;2.80;79.60;;;;;;5052462;28;20029;-82
2020/12/11 06:49:14;;;;;;;30.40;15.73;;;2.80;79.70;;;;;;5051422;28;20025;-87
2020/12/11 06:51:45;;;;;;;17.47;9.93;;;4.70;98.50;;;;;;5045368;28;20064;-87
2020/12/11 06:54:20;;;;;;;14.13;8.70;;;7.20;75.60;;;;;;5051671;28;20032;-83
2020/12/11 06:56:50;;;;;;;14.83;9.07;;;7.70;65.10;;;;;;5053592;28;20032;-81
2020/12/11 06:59:24;;;;;;;;;;;6.10;65.20;;;;;;5053888;28;20448;-84
2020/12/11 07:01:50;;;;;;;14.83;9.30;;;5.30;68.20;;;;;;5053081;28;20383;-84
2020/12/11 07:04:16;;;;;;;16.97;9.97;;;4.70;70.90;;;;;;5053954;28;20033;-82
2020/12/11 07:06:47;;;;;;;15.33;9.60;;;4.20;73.00;;;;;;5055235;28;20519;-86
2020/12/11 07:09:13;;;;;;;15.97;9.80;;;3.90;74.80;;;;;;5054110;28;20056;-86
2020/12/11 07:11:39;;;;;;;19.07;10.40;;;3.70;76.10;;;;;;5051866;28;20492;-86
2020/12/11 07:14:05;;;;;;;16.97;10.03;;;3.50;77.20;;;;;;5055085;28;20021;-85
2020/12/11 07:16:36;;;;;;;18.80;11.40;;;3.50;78.50;;;;;;5057491;28;20408;-81
2020/12/11 07:19:02;;;;;;;18.73;10.77;;;3.40;82.10;;;;;;5057660;28;20056;-80
2020/12/11 07:21:28;;;;;;;18.53;10.23;;;3.40;82.80;;;;;;5056609;28;20382;-85
2020/12/11 07:23:54;;;;;;;22.03;11.70;;;3.40;82.60;;;;;;5056801;28;20052;-85
2020/12/11 07:26:20;;;;;;;20.50;11.37;;;3.30;81.80;;;;;;5056989;28;20033;-83
2020/12/11 07:28:46;;;;;;;17.83;11.17;;;3.20;80.70;;;;;;5056876;28;20036;-81
2020/12/11 07:31:12;;;;;;;18.07;10.97;;;3.20;80.00;;;;;;5056110;28;20033;-83
2020/12/11 07:33:37;;;;;;;17.23;10.77;;;3.10;80.60;;;;;;5056438;28;20083;-82
2020/12/11 07:36:04;;;;;;;16.97;10.53;;;3.10;80.70;;;;;;5056381;28;20024;-84
2020/12/11 07:38:30;;;;;;;18.23;9.80;;;3.10;79.80;;;;;;5053657;28;20369;-84
2020/12/11 07:40:58;;;;;;;18.00;11.07;;;3.10;80.50;;;;;;5055924;28;20025;-84
2020/12/11 07:43:24;;;;;;;17.10;9.70;;;3.00;80.70;;;;;;5055543;28;20037;-83
2020/12/11 07:45:51;;;;;;;18.60;10.13;;;3.10;80.50;;;;;;5056863;28;20100;-80
2020/12/11 07:48:16;;;;;;;16.40;10.10;;;3.00;79.80;;;;;;5056252;28;20036;-81
2020/12/11 07:50:42;;;;;;;16.33;9.43;;;3.10;80.00;;;;;;5056335;28;20373;-83
2020/12/11 07:53:09;;;;;;;14.33;9.97;;;3.00;79.20;;;;;;5054717;28;20032;-83
2020/12/11 07:55:35;;;;;;;19.50;10.17;;;3.10;79.40;;;;;;5055556;28;20020;-85
2020/12/11 07:58:02;;;;;;;15.20;9.50;;;3.10;79.50;;;;;;5054193;28;20025;-84
2020/12/11 08:00:28;;;;;;;15.37;9.37;;;3.10;79.40;;;;;;5053917;28;20040;-83
2020/12/11 08:02:55;;;;;;;17.93;9.27;;;3.00;79.30;;;;;;5054829;28;20033;-83
2020/12/11 08:05:22;;;;;;;15.23;9.63;;;3.00;79.40;;;;;;5055048;28;20117;-81
2020/12/11 08:07:52;;;;;;;15.30;9.07;;;3.00;79.40;;;;;;5054510;28;20398;-85
2020/12/11 08:10:21;;;;;;;15.97;9.80;;;3.00;79.60;;;;;;5053583;28;20078;-85
2020/12/11 08:12:47;;;;;;;15.87;9.70;;;3.10;79.40;;;;;;5053345;28;20029;-88
2020/12/11 08:15:34;;;;;;;14.93;9.20;;;3.10;79.40;;;;;;5053650;28;20029;-88
2020/12/11 08:18:29;;;;;;;17.77;9.33;;;3.10;79.60;;;;;;5051726;28;20116;-87
2020/12/11 08:20:57;;;;;;;17.63;10.00;;;3.10;79.30;;;;;;5044986;28;20068;-84
2020/12/11 08:23:25;;;;;;;16.40;9.60;;;3.10;79.40;;;;;;5053090;28;20056;-85
2020/12/11 08:26:08;;;;;;;16.00;9.83;;;3.10;79.40;;;;;;5053198;28;20032;-85
2020/12/11 08:28:34;;;;;;;14.60;9.03;;;3.10;79.30;;;;;;5053841;28;20545;-87
2020/12/11 08:31:20;;;;;;;22.27;11.50;;;3.10;79.30;;;;;;5051197;28;20120;-90
2020/12/11 08:33:47;;;;;;;17.13;9.90;;;3.20;80.00;;;;;;5054122;28;20032;-82
2020/12/11 08:36:21;;;;;;;18.90;11.03;;;3.20;80.60;;;;;;5054417;28;20503;-83
2020/12/11 08:39:15;;;;;;;17.50;11.00;;;3.30;87.20;;;;;;5058056;28;20471;-83
2020/12/11 08:50:23;;;;;;;15.07;9.17;;;3.50;79.00;;;;;;5054384;28;20033;-85
2020/12/11 08:52:49;;;;;;;18.20;10.73;;;3.40;79.30;;;;;;5048878;28;20036;-86
2020/12/11 08:55:15;;;;;;;16.03;9.67;;;3.40;79.60;;;;;;5051138;28;20033;-87
2020/12/11 08:57:40;;;;;;;14.70;9.37;;;3.40;80.10;;;;;;5052013;28;20025;-84
2020/12/11 09:00:06;;;;;;;16.53;10.10;;;3.40;80.00;;;;;;5053741;28;20033;-81
2020/12/11 09:02:32;;;;;;;14.33;9.10;;;3.40;79.80;;;;;;5052532;28;20092;-82
2020/12/11 09:04:58;;;;;;;15.00;9.50;;;3.40;79.80;;;;;;5052306;28;20028;-83
2020/12/11 09:07:24;;;;;;;16.63;9.93;;;3.50;79.90;;;;;;5052970;28;20028;-82
2020/12/11 09:09:53;;;;;;;15.03;9.70;;;3.40;79.90;;;;;;5052942;28;20025;-82
2020/12/11 09:12:19;;;;;;;17.48;9.27;;;3.50;80.60;;;;;;5054674;28;20449;-82
2020/12/11 09:14:45;;;;;;;16.43;9.53;;;3.50;80.20;;;;;;5054261;28;20193;-81
2020/12/11 09:17:10;;;;;;;14.60;9.40;;;3.50;80.20;;;;;;5053730;28;20095;-81
2020/12/11 09:19:36;;;;;;;17.37;10.30;;;3.50;80.50;;;;;;5054539;28;20048;-83
2020/12/11 09:22:02;;;;;;;16.57;9.90;;;3.50;80.20;;;;;;5054771;28;20025;-82
2020/12/11 09:24:28;;;;;;;15.77;9.47;;;3.60;80.10;;;;;;5054626;28;20028;-83
2020/12/11 09:26:55;;;;;;;14.63;9.47;;;3.60;80.30;;;;;;5054876;28;20025;-83
2020/12/11 09:29:43;;;;;;;15.47;9.53;;;3.70;80.00;;;;;;5054471;28;20024;-82
2020/12/11 09:32:13;;;;;;;17.63;9.47;;;3.60;80.10;;;;;;5054504;28;20107;-83
2020/12/11 09:34:38;;;;;;;14.37;9.43;;;3.70;80.20;;;;;;5054665;28;20021;-82
2020/12/11 09:37:04;;;;;;;15.60;9.80;;;3.70;80.20;;;;;;5053117;28;20074;-82
2020/12/11 09:39:30;;;;;;;14.93;8.77;;;3.70;80.30;;;;;;5054472;28;20070;-82
2020/12/11 09:42:12;;;;;;;17.23;9.50;;;3.70;80.90;;;;;;5054140;28;20366;-83
2020/12/11 09:52:49;;;;;;;13.93;8.77;;;3.70;80.20;;;;;;5054467;28;20094;-82
2020/12/11 09:55:15;;;;;;;16.63;8.70;;;3.80;80.30;;;;;;5053938;28;20017;-82
2020/12/11 09:57:41;;;;;;;14.60;8.70;;;3.80;80.40;;;;;;5054367;28;20032;-81
2020/12/11 10:00:07;;;;;;;15.17;9.00;;;3.80;80.50;;;;;;5053494;28;20021;-83
2020/12/11 10:05:17;;;;;;;12.90;8.17;;;3.90;80.00;;;;;;5054088;28;20036;-82
2020/12/11 10:07:42;;;;;;;13.53;8.00;;;3.90;80.20;;;;;;5053481;28;20025;-83
2020/12/11 10:10:08;;;;;;;13.83;8.13;;;4.00;80.30;;;;;;5054077;28;20021;-81
2020/12/11 10:12:34;;;;;;;12.87;8.10;;;4.00;80.00;;;;;;5053128;28;20048;-82
2020/12/11 10:15:06;;;;;;;12.63;8.50;;;4.00;80.20;;;;;;5052973;28;20342;-81
2020/12/11 10:17:31;;;;;;;14.63;9.00;;;4.00;83.00;;;;;;5053321;28;20386;-81
2020/12/11 10:19:57;;;;;;;15.30;9.10;;;4.10;84.80;;;;;;5052752;28;20127;-82
2020/12/11 10:22:22;;;;;;;13.87;8.83;;;4.20;83.60;;;;;;5051334;28;20488;-82
2020/12/11 10:24:48;;;;;;;15.20;8.90;;;4.20;84.40;;;;;;5054039;28;20044;-82
2020/12/11 10:27:14;;;;;;;13.97;8.53;;;4.20;81.30;;;;;;5052951;28;20029;-83
2020/12/11 10:29:40;;;;;;;13.90;8.50;;;4.10;81.90;;;;;;5053525;28;20072;-83
2020/12/11 10:32:05;;;;;;;13.90;8.63;;;4.10;82.80;;;;;;5053577;28;20485;-82
2020/12/11 10:34:34;;;;;;;12.90;8.57;;;4.10;84.00;;;;;;5053171;28;20049;-83
2020/12/11 10:37:01;;;;;;;15.15;9.35;;;4.10;84.00;;;;;;5054078;28;20490;-80
2020/12/11 10:39:26;;;;;;;13.73;9.07;;;4.10;84.70;;;;;;5054597;28;20029;-81
2020/12/11 10:41:52;;;;;;;11.63;7.73;;;4.10;85.70;;;;;;5054397;28;20067;-82
2020/12/11 10:44:17;;;;;;;13.40;8.33;;;4.00;85.00;;;;;;5054131;28;20082;-82
2020/12/11 10:46:43;;;;;;;14.20;8.70;;;4.00;85.60;;;;;;5053532;28;20043;-82
2020/12/11 10:49:17;;;;;;;15.70;9.50;;;4.00;85.00;;;;;;5057838;28;20132;-82
2020/12/11 10:51:46;;;;;;;14.73;8.93;;;4.00;84.80;;;;;;5057582;28;20485;-84
2020/12/11 10:54:14;;;;;;;13.43;8.57;;;4.00;84.80;;;;;;5057625;28;20052;-83
2020/12/11 10:56:40;;;;;;;14.70;9.17;;;4.00;84.60;;;;;;5056554;28;20092;-83
2020/12/11 10:59:09;;;;;;;14.17;9.00;;;4.10;84.30;;;;;;5057743;28;20017;-87
2020/12/11 11:01:35;;;;;;;17.67;10.60;;;4.10;83.60;;;;;;5056597;28;20025;-82
2020/12/11 11:04:01;;;;;;;14.40;9.30;;;4.80;91.00;;;;;;5063627;28;20037;-79
2020/12/11 11:06:31;;;;;;;13.70;8.67;;;5.00;81.60;;;;;;5067886;28;20025;-80
2020/12/11 11:11:25;;;;;;;14.07;8.80;;;4.70;82.00;;;;;;5069942;28;20128;-80
2020/12/11 11:22:16;;;;;;;12.03;8.13;;;4.40;82.00;;;;;;5060066;28;20025;-80
2020/12/11 11:29:54;;;;;;;13.57;8.30;;;4.40;82.30;;;;;;5057211;28;20032;-78
2020/12/11 11:32:20;;;;;;;14.40;8.33;;;4.30;82.60;;;;;;5057101;28;20389;-77
2020/12/11 11:34:45;;;;;;;13.63;8.40;;;4.30;82.40;;;;;;5058389;28;20396;-77
2020/12/11 11:37:11;;;;;;;14.20;8.40;;;4.40;82.50;;;;;;5057338;28;20036;-77
2020/12/11 11:39:37;;;;;;;12.87;8.30;;;4.30;82.40;;;;;;5056558;28;20057;-80
2020/12/11 11:42:02;;;;;;;12.30;8.03;;;4.30;82.60;;;;;;5057377;28;20067;-78
2020/12/11 11:45:33;;;;;;;12.63;8.03;;;4.40;83.70;;;;;;5057176;28;20048;-78
2020/12/11 11:47:24;;;;;;;14.50;8.70;;;4.30;84.60;;;;;;5047824;28;20100;-80
2020/12/11 11:49:56;;;;;;;16.50;8.37;;;4.30;85.50;;;;;;5055876;28;20338;-80
2020/12/11 11:54:48;;;;;;;13.53;8.37;;;4.30;85.10;;;;;;5057306;28;20036;-79
2020/12/11 11:57:14;;;;;;;10.70;7.73;;;4.30;86.30;;;;;;5057618;28;20036;-79
2020/12/11 11:59:39;;;;;;;12.87;8.07;;;4.30;85.50;;;;;;5056162;28;20520;-79
2020/12/11 12:02:05;;;;;;;12.80;7.00;;;4.30;85.30;;;;;;5058941;28;20122;-80
2020/12/11 12:04:31;;;;;;;11.50;7.40;;;4.30;85.40;;;;;;5058387;28;20100;-79
2020/12/11 12:06:57;;;;;;;16.87;8.60;;;4.30;86.80;;;;;;5055834;28;20051;-79
2020/12/11 12:09:23;;;;;;;12.80;8.17;;;4.30;88.20;;;;;;5056214;28;20044;-80
2020/12/11 12:11:48;;;;;;;12.73;8.10;;;4.30;88.30;;;;;;5056366;28;20053;-78
2020/12/11 12:14:14;;;;;;;14.17;8.70;;;4.20;88.80;;;;;;5055976;28;20120;-79
2020/12/11 12:16:41;;;;;;;14.10;8.43;;;4.20;89.20;;;;;;5056476;28;20460;-79
2020/12/11 12:19:11;;;;;;;15.77;8.00;;;4.20;89.30;;;;;;5054558;28;20112;-79
2020/12/11 12:22:27;;;;;;;15.13;8.80;;;4.20;89.80;;;;;;5055612;28;20401;-80
2020/12/11 12:29:54;;;;;;;15.60;9.17;;;4.20;90.50;;;;;;5055111;28;20104;-79
2020/12/11 12:32:23;;;;;;;14.03;8.43;;;4.20;90.40;;;;;;5055613;28;20056;-79
2020/12/11 12:35:00;;;;;;;13.00;8.13;;;4.20;90.40;;;;;;5055852;28;20029;-79
2020/12/11 12:45:16;;;;;;;14.87;8.33;;;4.30;90.70;;;;;;5059382;28;20496;-79
2020/12/11 12:47:41;;;;;;;14.77;8.97;;;4.30;90.60;;;;;;5054751;28;20025;-80
2020/12/11 12:50:09;;;;;;;15.00;8.57;;;4.30;90.40;;;;;;5055903;28;20051;-80
2020/12/11 12:52:35;;;;;;;16.57;8.60;;;4.30;90.30;;;;;;5054647;28;20077;-81
2020/12/11 12:55:01;;;;;;;13.47;8.03;;;4.30;90.20;;;;;;5054151;28;20044;-80
2020/12/11 12:58:00;;;;;;;14.77;8.53;;;4.30;90.30;;;;;;5055269;28;20037;-79
2020/12/11 13:00:27;;;;;;;13.27;7.83;;;4.40;90.10;;;;;;5054068;28;20093;-79
2020/12/11 13:05:31;;;;;;;14.77;7.70;;;4.40;89.80;;;;;;5050179;28;20025;-79
2020/12/11 13:07:57;;;;;;;14.00;7.97;;;4.40;89.60;;;;;;5052150;28;20414;-79
2020/12/11 13:10:22;;;;;;;13.70;8.00;;;4.40;89.20;;;;;;5052027;28;20035;-80
2020/12/11 13:12:48;;;;;;;14.90;7.80;;;4.40;89.30;;;;;;5052027;28;20041;-79
2020/12/11 13:15:15;;;;;;;10.73;7.17;;;4.40;88.80;;;;;;5053706;28;20033;-79
2020/12/11 13:17:41;;;;;;;13.93;7.47;;;4.50;88.80;;;;;;5053195;28;20371;-79
2020/12/11 13:20:10;;;;;;;13.97;7.13;;;4.50;88.60;;;;;;5055679;28;20025;-82
2020/12/11 13:23:02;;;;;;;12.90;7.53;;;4.50;88.30;;;;;;5052279;28;20461;-79
2020/12/11 13:27:47;;;;;;;10.80;6.77;;;4.50;88.10;;;;;;5052346;28;20025;-80
2020/12/11 13:30:13;;;;;;;10.93;6.80;;;4.50;87.50;;;;;;5051641;28;20035;-80
2020/12/11 13:32:38;;;;;;;12.30;7.53;;;4.50;87.10;;;;;;5051510;28;20108;-80
2020/12/11 13:35:05;;;;;;;10.93;6.83;;;4.50;87.00;;;;;;5052037;28;20057;-79
2020/12/11 13:37:31;;;;;;;12.93;6.83;;;4.60;86.90;;;;;;5051665;28;20163;-80
2020/12/11 13:40:01;;;;;;;11.60;7.23;;;4.60;87.20;;;;;;5050120;28;20489;-80
2020/12/11 13:42:31;;;;;;;10.53;6.30;;;4.60;87.10;;;;;;5051904;28;20021;-80
2020/12/11 13:44:59;;;;;;;11.93;7.47;;;4.60;86.40;;;;;;5051545;28;20039;-80